Airfield :
LOGIN :

Register | Disclaimer

   EN    FR    IT 

 










Legend :    VFR   Marginal VFR   IFR   Intensive IFR   Very Intensive IFR
Visi :
Ceiling :
>= 8 km
>= 3000ft
5 to 8 km
1000 to 3000 ft
1500m to 5 km
500 to 1000 ft
800 to 1500m
200 to 500 ft
< 800m
< 200 ft
Symbols :   Thunderstorms  Fog  Heavy snow  Heavy precipitations  Wind > 20 kt
SIGMETs :     Misc.  Thunderstorms  Icing  Turbulence  Mountain Waves  Volcanic Ashes







- Airport Elevation : 184 ft
- IATA code : BRU


EBBR - Bruxelles

CURRENT METAR :
  • 181950Z 05005KT CAVOK 01/M03 Q1024 NOSIG

EXPIRED METARs :
  • 181920Z 05005KT CAVOK 01/M03 Q1024 NOSIG
  • 181850Z 06005KT CAVOK 02/M03 Q1024 NOSIG
  • 181820Z 05005KT CAVOK 02/M03 Q1024 NOSIG
  • 181750Z 05007KT CAVOK 01/M02 Q1025 NOSIG
  • 181720Z 05006KT CAVOK 02/M02 Q1025 NOSIG

TAF TAF EBBR
Valid from the 18 at 18:00 until the 20 at 00:00 UTC


181720Z 1818/1924 06010KT CAVOK
TEMPO 1901/1909 4500 DZ BR BKN007
PROB30
TEMPO 1901/1906 2800 FZDZ BR
PROB30
TEMPO 1910/1924 06015G28KT
PROB30
TEMPO 1910/1919 4500 SHRA BKN014
No reported NOTAMs for that airfield.



MET'MAP, your aeronautical weather chart ! - Copyright ORBIFLY December 2007 - Disclaimer

ORBIFLY MET'MAP TEAM :

Programming & Development : Alexandra Zaïnal
Concept & Development : Baudouin d'Aumeries
Co-Development & Prog : Marc-Olivier Méhu
Technical & hardware support : Manuel Goepfert

Contact : metmap@orbifly.com




SOURCES & CREDITS :

   NOAA